createdAt,value
2022-12-17T00:00:21.952Z,91.43
2022-12-17T00:00:49.190Z,90.80
2022-12-17T00:01:19.751Z,90.80
2022-12-17T00:01:50.341Z,90.80
2022-12-17T00:02:20.937Z,90.69
2022-12-17T00:02:51.656Z,91.01
2022-12-17T00:03:22.582Z,91.22
2022-12-17T00:03:53.273Z,91.53
2022-12-17T00:04:23.960Z,91.74
2022-12-17T00:04:54.526Z,91.85
2022-12-17T00:05:25.061Z,92.16
2022-12-17T00:05:55.611Z,91.96
2022-12-17T00:06:26.308Z,91.71
2022-12-17T00:06:56.876Z,91.96
2022-12-17T00:07:27.433Z,91.91
2022-12-17T00:07:57.990Z,91.49
2022-12-17T00:08:28.587Z,91.18
2022-12-17T00:08:59.124Z,91.28
2022-12-17T00:09:29.676Z,91.39
2022-12-17T00:10:00.219Z,91.39
2022-12-17T00:10:30.810Z,91.39
2022-12-17T00:11:01.425Z,91.07
2022-12-17T00:11:31.959Z,91.28
2022-12-17T00:12:02.496Z,91.39
2022-12-17T00:12:33.065Z,91.07
2022-12-17T00:13:03.648Z,90.76
2022-12-17T00:13:34.669Z,90.55
2022-12-17T00:14:04.858Z,90.86
2022-12-17T00:14:35.445Z,91.07
2022-12-17T00:15:05.976Z,90.55
2022-12-17T00:15:36.534Z,90.34
2022-12-17T00:16:07.129Z,90.23
2022-12-17T00:16:37.829Z,90.23
2022-12-17T00:17:08.466Z,90.86
2022-12-17T00:17:39.062Z,91.18
2022-12-17T00:18:09.609Z,91.07
2022-12-17T00:18:40.327Z,90.86
2022-12-17T00:19:10.897Z,90.76
2022-12-17T00:19:41.486Z,90.34
2022-12-17T00:20:12.048Z,90.12
2022-12-17T00:20:42.632Z,89.96
2022-12-17T00:21:13.206Z,89.96
2022-12-17T00:21:43.770Z,89.86
2022-12-17T00:22:14.336Z,89.96
2022-12-17T00:22:44.909Z,90.06
2022-12-17T00:23:15.527Z,90.17
2022-12-17T00:23:46.137Z,90.27
2022-12-17T00:24:16.670Z,90.69
2022-12-17T00:24:47.250Z,90.91
2022-12-17T00:25:17.826Z,91.43
2022-12-17T00:25:48.399Z,91.53
2022-12-17T00:26:18.980Z,91.22
2022-12-17T00:26:49.568Z,91.11
2022-12-17T00:27:20.156Z,91.11
2022-12-17T00:27:50.709Z,91.22
2022-12-17T00:28:21.289Z,91.11
2022-12-17T00:28:51.845Z,91.22
2022-12-17T00:29:22.397Z,91.43
2022-12-17T00:29:52.942Z,91.53
2022-12-17T00:30:23.545Z,91.33
2022-12-17T00:30:54.129Z,91.01
2022-12-17T00:31:24.756Z,90.17
2022-12-17T00:31:55.408Z,90.06
2022-12-17T00:32:26.367Z,89.96
2022-12-17T00:32:56.950Z,89.32
2022-12-17T00:33:27.529Z,89.22
2022-12-17T00:33:58.110Z,89.22
2022-12-17T00:34:28.670Z,89.86
2022-12-17T00:34:59.229Z,90.48
2022-12-17T00:35:29.827Z,90.27
2022-12-17T00:36:00.415Z,90.48
2022-12-17T00:36:31.004Z,90.80
2022-12-17T00:37:01.548Z,90.06
2022-12-17T00:37:32.102Z,89.32
2022-12-17T00:38:02.638Z,88.91
2022-12-17T00:38:33.200Z,88.91
2022-12-17T00:39:03.801Z,89.32
2022-12-17T00:39:34.349Z,89.54
2022-12-17T00:40:04.909Z,89.75
2022-12-17T00:40:35.471Z,89.54
2022-12-17T00:41:06.067Z,89.32
2022-12-17T00:41:36.598Z,89.22
2022-12-17T00:42:07.141Z,89.43
2022-12-17T00:42:37.722Z,89.22
2022-12-17T00:43:08.284Z,89.12
2022-12-17T00:43:39.431Z,89.22
2022-12-17T00:44:09.612Z,89.12
2022-12-17T00:44:40.250Z,89.86
2022-12-17T00:45:10.833Z,90.06
2022-12-17T00:45:41.404Z,89.43
2022-12-17T00:46:12.077Z,89.12
2022-12-17T00:46:42.742Z,89.54
2022-12-17T00:47:13.395Z,89.54
2022-12-17T00:47:43.955Z,89.01
2022-12-17T00:48:14.545Z,88.59
2022-12-17T00:48:45.117Z,88.59
2022-12-17T00:49:15.657Z,89.43
2022-12-17T00:49:46.211Z,89.86
2022-12-17T00:50:16.768Z,89.86
2022-12-17T00:50:47.335Z,89.64
2022-12-17T00:51:17.915Z,89.64
2022-12-17T00:51:48.502Z,89.32
2022-12-17T00:52:19.059Z,89.64
2022-12-17T00:52:49.664Z,89.86
2022-12-17T00:53:20.286Z,89.32
2022-12-17T00:53:50.817Z,89.32
2022-12-17T00:54:21.416Z,89.43
2022-12-17T00:54:51.976Z,89.22
2022-12-17T00:55:22.514Z,88.91
2022-12-17T00:55:53.092Z,89.01
2022-12-17T00:56:23.632Z,89.64
2022-12-17T00:56:54.200Z,89.43
2022-12-17T00:57:24.825Z,89.32
2022-12-17T00:57:55.370Z,88.80
2022-12-17T00:58:26.249Z,88.17
2022-12-17T00:58:56.781Z,89.22
2022-12-17T00:59:27.360Z,90.06
2022-12-17T00:59:57.929Z,89.86
2022-12-17T01:00:28.552Z,88.91
2022-12-17T01:00:59.269Z,88.59
2022-12-17T01:01:30.058Z,88.49
2022-12-17T01:02:00.871Z,88.49
2022-12-17T01:02:31.574Z,88.17
2022-12-17T01:03:02.292Z,88.07
2022-12-17T01:03:33.231Z,88.42
2022-12-17T01:04:03.439Z,88.74
2022-12-17T01:04:34.026Z,88.53
2022-12-17T01:05:04.576Z,88.42
2022-12-17T01:05:35.129Z,88.84
2022-12-17T01:06:05.667Z,89.26
2022-12-17T01:06:36.255Z,89.26
2022-12-17T01:07:06.810Z,88.84
2022-12-17T01:07:37.376Z,89.16
2022-12-17T01:08:07.943Z,89.58
2022-12-17T01:08:38.506Z,90.31
2022-12-17T01:09:09.080Z,90.63
2022-12-17T01:09:39.922Z,89.89
2022-12-17T01:10:10.479Z,89.16
2022-12-17T01:10:41.033Z,88.95
2022-12-17T01:11:11.583Z,89.16
2022-12-17T01:11:42.168Z,89.58
2022-12-17T01:12:12.706Z,89.58
2022-12-17T01:12:43.273Z,89.16
2022-12-17T01:13:13.848Z,89.05
2022-12-17T01:13:44.394Z,88.74
2022-12-17T01:14:14.942Z,88.53
2022-12-17T01:14:45.508Z,88.63
2022-12-17T01:15:16.074Z,88.95
2022-12-17T01:15:46.627Z,88.84
2022-12-17T01:16:17.281Z,88.63
2022-12-17T01:16:47.921Z,89.05
2022-12-17T01:17:18.493Z,89.16
2022-12-17T01:17:49.066Z,88.84
2022-12-17T01:18:19.632Z,88.63
2022-12-17T01:18:50.201Z,88.95
2022-12-17T01:19:20.766Z,89.16
2022-12-17T01:19:51.346Z,89.69
2022-12-17T01:20:21.946Z,90.11
2022-12-17T01:20:52.500Z,90.31
2022-12-17T01:21:23.083Z,89.79
2022-12-17T01:21:53.686Z,89.37
2022-12-17T01:22:24.213Z,89.05
2022-12-17T01:22:56.505Z,88.63
2022-12-17T01:23:25.562Z,88.42
2022-12-17T01:23:56.102Z,88.53
2022-12-17T01:24:26.763Z,88.63
2022-12-17T01:24:57.352Z,88.78
2022-12-17T01:25:27.927Z,88.89
2022-12-17T01:25:58.522Z,88.89
2022-12-17T01:26:29.111Z,88.89
2022-12-17T01:26:59.673Z,89.09
2022-12-17T01:27:30.265Z,89.51
2022-12-17T01:28:00.820Z,89.62
2022-12-17T01:28:31.396Z,89.89
2022-12-17T01:29:01.986Z,89.47
2022-12-17T01:29:32.561Z,89.58
2022-12-17T01:30:03.111Z,89.69
2022-12-17T01:30:33.664Z,89.69
2022-12-17T01:31:04.211Z,89.69
2022-12-17T01:31:35.559Z,89.47
2022-12-17T01:32:05.758Z,88.42
2022-12-17T01:32:36.326Z,87.58
2022-12-17T01:33:06.901Z,87.30
2022-12-17T01:33:37.974Z,87.10
2022-12-17T01:34:08.201Z,87.20
2022-12-17T01:34:38.743Z,87.83
2022-12-17T01:35:09.317Z,87.52
2022-12-17T01:35:39.862Z,87.41
2022-12-17T01:36:10.432Z,87.30
2022-12-17T01:36:41.030Z,87.41
2022-12-17T01:37:11.616Z,87.52
2022-12-17T01:37:42.159Z,87.30
2022-12-17T01:38:12.699Z,87.41
2022-12-17T01:38:43.287Z,87.30
2022-12-17T01:39:13.860Z,87.24
2022-12-17T01:39:44.428Z,87.24
2022-12-17T01:40:15.153Z,87.35
2022-12-17T01:40:45.695Z,87.35
2022-12-17T01:41:16.246Z,87.55
2022-12-17T01:41:46.809Z,87.76
2022-12-17T01:42:17.367Z,87.81
2022-12-17T01:42:47.990Z,87.81
2022-12-17T01:43:18.512Z,87.81
2022-12-17T01:43:49.088Z,87.81
2022-12-17T01:44:19.659Z,88.02
2022-12-17T01:44:50.205Z,88.12
2022-12-17T01:45:20.768Z,87.91
2022-12-17T01:45:51.387Z,87.91
2022-12-17T01:46:22.067Z,88.33
2022-12-17T01:46:52.693Z,88.86
2022-12-17T01:47:23.258Z,88.75
2022-12-17T01:47:53.826Z,88.33
2022-12-17T01:48:24.560Z,88.33
2022-12-17T01:48:55.169Z,88.44
2022-12-17T01:49:25.740Z,88.69
2022-12-17T01:49:56.316Z,88.96
2022-12-17T01:50:26.891Z,89.07
2022-12-17T01:50:57.446Z,88.58
2022-12-17T01:51:28.015Z,88.37
2022-12-17T01:51:58.604Z,88.27
2022-12-17T01:52:29.170Z,88.27
2022-12-17T01:52:59.721Z,88.27
2022-12-17T01:53:30.308Z,87.95
2022-12-17T01:54:00.864Z,87.63
2022-12-17T01:54:31.400Z,87.53
2022-12-17T01:55:01.957Z,87.53
2022-12-17T01:55:32.515Z,87.74
2022-12-17T01:56:03.053Z,87.88
2022-12-17T01:56:33.629Z,87.88
2022-12-17T01:57:04.206Z,87.88
2022-12-17T01:57:34.809Z,87.88
2022-12-17T01:58:05.371Z,87.57
2022-12-17T01:58:35.935Z,87.68
2022-12-17T01:59:06.497Z,87.78
2022-12-17T01:59:37.059Z,87.78
2022-12-17T02:00:07.624Z,88.03
2022-12-17T02:00:38.267Z,88.24
2022-12-17T02:01:08.914Z,88.66
2022-12-17T02:01:39.781Z,88.77
2022-12-17T02:02:10.596Z,88.66
2022-12-17T02:02:41.399Z,88.56
2022-12-17T02:03:12.132Z,88.56
2022-12-17T02:03:42.720Z,88.56
2022-12-17T02:04:13.284Z,88.66
2022-12-17T02:04:43.837Z,88.77
2022-12-17T02:05:14.372Z,88.81
2022-12-17T02:05:44.932Z,89.19
2022-12-17T02:06:15.530Z,89.82
2022-12-17T02:06:46.112Z,89.61
2022-12-17T02:07:16.679Z,90.14
2022-12-17T02:07:47.328Z,90.25
2022-12-17T02:08:17.917Z,90.67
2022-12-17T02:08:48.475Z,90.14
2022-12-17T02:09:19.020Z,89.19
2022-12-17T02:09:49.593Z,88.87
2022-12-17T02:10:20.154Z,89.51
2022-12-17T02:10:50.744Z,90.10
2022-12-17T02:11:21.514Z,89.57
2022-12-17T02:11:52.096Z,88.62
2022-12-17T02:12:22.680Z,87.71
2022-12-17T02:12:53.229Z,87.61
2022-12-17T02:13:23.795Z,87.71
2022-12-17T02:13:54.381Z,87.61
2022-12-17T02:14:24.937Z,87.71
2022-12-17T02:14:55.541Z,87.71
2022-12-17T02:15:26.402Z,87.65
2022-12-17T02:15:56.974Z,87.96
2022-12-17T02:16:27.670Z,89.02
2022-12-17T02:16:58.285Z,89.12
2022-12-17T02:17:28.814Z,88.92
2022-12-17T02:17:59.383Z,88.92
2022-12-17T02:18:29.931Z,88.92
2022-12-17T02:19:00.459Z,88.92
2022-12-17T02:19:31.035Z,88.70
2022-12-17T02:20:01.590Z,88.18
2022-12-17T02:20:32.155Z,87.96
2022-12-17T02:21:02.726Z,88.07
2022-12-17T02:21:33.255Z,88.07
2022-12-17T02:22:03.834Z,87.86
2022-12-17T02:22:34.404Z,87.65
2022-12-17T02:23:04.965Z,87.79
2022-12-17T02:23:35.937Z,88.01
2022-12-17T02:24:06.287Z,88.11
2022-12-17T02:24:36.856Z,88.43
2022-12-17T02:25:07.413Z,88.21
2022-12-17T02:25:38.009Z,88.01
2022-12-17T02:26:08.604Z,88.11
2022-12-17T02:26:39.135Z,88.21
2022-12-17T02:27:09.691Z,88.04
2022-12-17T02:27:40.239Z,87.94
2022-12-17T02:28:10.780Z,88.04
2022-12-17T02:28:41.318Z,87.84
2022-12-17T02:29:11.905Z,87.62
2022-12-17T02:29:42.480Z,87.62
2022-12-17T02:30:13.004Z,87.84
2022-12-17T02:30:43.566Z,88.46
2022-12-17T02:31:14.235Z,88.93
2022-12-17T02:31:44.928Z,88.71
2022-12-17T02:32:15.492Z,88.51
2022-12-17T02:32:46.082Z,88.09
2022-12-17T02:33:16.612Z,88.19
2022-12-17T02:33:47.144Z,88.51
2022-12-17T02:34:17.672Z,88.71
2022-12-17T02:34:48.246Z,88.82
2022-12-17T02:35:18.799Z,88.93
2022-12-17T02:35:49.380Z,88.65
2022-12-17T02:36:19.950Z,88.65
2022-12-17T02:36:50.547Z,88.76
2022-12-17T02:37:21.091Z,88.86
2022-12-17T02:37:51.654Z,88.97
2022-12-17T02:38:22.191Z,88.86
2022-12-17T02:38:52.777Z,88.23
2022-12-17T02:39:23.348Z,87.81
2022-12-17T02:39:53.923Z,87.74
2022-12-17T02:40:24.871Z,87.95
2022-12-17T02:40:57.010Z,87.95
2022-12-17T02:41:26.203Z,88.27
2022-12-17T02:41:56.756Z,88.37
2022-12-17T02:42:27.330Z,88.59
2022-12-17T02:42:57.901Z,88.59
2022-12-17T02:43:28.442Z,88.80
2022-12-17T02:43:58.983Z,89.22
2022-12-17T02:44:29.546Z,89.54
2022-12-17T02:45:00.139Z,90.00
2022-12-17T02:45:30.750Z,90.11
2022-12-17T02:46:01.462Z,90.11
2022-12-17T02:46:32.049Z,89.69
2022-12-17T02:47:02.606Z,89.37
2022-12-17T02:47:33.182Z,89.58
2022-12-17T02:48:03.732Z,89.58
2022-12-17T02:48:34.299Z,89.47
2022-12-17T02:49:04.877Z,89.47
2022-12-17T02:49:35.429Z,89.47
2022-12-17T02:50:05.997Z,89.47
2022-12-17T02:50:36.550Z,89.37
2022-12-17T02:51:07.154Z,89.47
2022-12-17T02:51:37.699Z,89.79
2022-12-17T02:52:08.284Z,89.79
2022-12-17T02:52:38.830Z,89.89
2022-12-17T02:53:09.391Z,89.89
2022-12-17T02:53:39.965Z,90.00
2022-12-17T02:54:10.527Z,90.11
2022-12-17T02:54:41.119Z,90.21
2022-12-17T02:55:11.702Z,90.57
2022-12-17T02:55:42.284Z,90.64
2022-12-17T02:56:12.824Z,90.53
2022-12-17T02:56:43.445Z,90.47
2022-12-17T02:57:13.980Z,90.47
2022-12-17T02:57:45.811Z,90.36
2022-12-17T02:58:15.352Z,90.36
2022-12-17T02:58:45.888Z,90.25
2022-12-17T02:59:16.451Z,90.25
2022-12-17T02:59:47.031Z,90.15
2022-12-17T03:00:17.577Z,90.15
2022-12-17T03:00:48.240Z,90.25
2022-12-17T03:01:18.886Z,90.25
2022-12-17T03:01:49.634Z,90.04
2022-12-17T03:02:20.384Z,90.04
2022-12-17T03:02:51.141Z,89.94
2022-12-17T03:03:21.926Z,90.04
2022-12-17T03:03:52.481Z,90.25
2022-12-17T03:04:23.069Z,90.78
2022-12-17T03:04:53.620Z,91.31
2022-12-17T03:05:46.443Z,91.31
2022-12-17T03:05:54.970Z,90.89
2022-12-17T03:06:25.550Z,90.36
2022-12-17T03:06:56.138Z,89.83
2022-12-17T03:07:26.721Z,89.62
2022-12-17T03:07:57.296Z,89.51
2022-12-17T03:08:27.829Z,89.62
2022-12-17T03:08:58.399Z,89.72
2022-12-17T03:09:28.971Z,89.83
2022-12-17T03:09:59.526Z,90.04
2022-12-17T03:10:30.082Z,90.15
2022-12-17T03:11:00.631Z,90.15
2022-12-17T03:11:31.229Z,90.19
2022-12-17T03:12:01.819Z,90.25
2022-12-17T03:12:32.347Z,90.19
2022-12-17T03:13:02.917Z,89.98
2022-12-17T03:13:33.892Z,89.87
2022-12-17T03:14:04.333Z,90.04
2022-12-17T03:14:35.086Z,90.50
2022-12-17T03:15:05.618Z,90.89
2022-12-17T03:15:36.184Z,90.82
2022-12-17T03:16:06.735Z,90.30
2022-12-17T03:16:38.199Z,89.87
2022-12-17T03:17:08.001Z,89.87
2022-12-17T03:17:38.560Z,90.08
2022-12-17T03:18:09.113Z,91.10
2022-12-17T03:18:39.683Z,91.52
2022-12-17T03:19:10.225Z,91.10
2022-12-17T03:19:40.776Z,89.83
2022-12-17T03:20:11.340Z,88.98
2022-12-17T03:20:41.909Z,88.88
2022-12-17T03:21:12.468Z,88.92
2022-12-17T03:21:43.041Z,89.03
2022-12-17T03:22:13.639Z,88.92
2022-12-17T03:22:44.196Z,88.71
2022-12-17T03:23:14.787Z,88.60
2022-12-17T03:23:45.354Z,88.92
2022-12-17T03:24:15.924Z,89.34
2022-12-17T03:24:46.486Z,89.45
2022-12-17T03:25:17.063Z,89.34
2022-12-17T03:25:47.631Z,89.13
2022-12-17T03:26:18.193Z,89.23
2022-12-17T03:26:48.732Z,89.76
2022-12-17T03:27:19.342Z,89.55
2022-12-17T03:27:49.875Z,88.71
2022-12-17T03:28:20.414Z,88.07
2022-12-17T03:28:50.996Z,87.86
2022-12-17T03:29:21.560Z,87.86
2022-12-17T03:29:52.105Z,88.07
2022-12-17T03:30:22.679Z,88.49
2022-12-17T03:30:53.281Z,88.75
2022-12-17T03:31:23.892Z,88.64
2022-12-17T03:31:54.495Z,88.32
2022-12-17T03:32:25.064Z,88.53
2022-12-17T03:32:55.625Z,89.06
2022-12-17T03:33:26.201Z,89.28
2022-12-17T03:33:56.797Z,89.38
2022-12-17T03:34:27.363Z,89.38
2022-12-17T03:34:57.894Z,89.28
2022-12-17T03:35:28.448Z,89.28
2022-12-17T03:35:58.998Z,88.85
2022-12-17T03:36:29.558Z,88.32
2022-12-17T03:37:00.137Z,88.11
2022-12-17T03:37:30.716Z,88.26
2022-12-17T03:38:01.248Z,88.57
2022-12-17T03:38:31.818Z,88.79
2022-12-17T03:39:02.392Z,88.68
2022-12-17T03:39:32.987Z,88.57
2022-12-17T03:40:03.561Z,88.36
2022-12-17T03:40:34.111Z,88.36
2022-12-17T03:41:04.701Z,88.57
2022-12-17T03:41:35.246Z,88.68
2022-12-17T03:42:05.789Z,88.36
2022-12-17T03:42:36.366Z,88.57
2022-12-17T03:43:06.899Z,89.21
2022-12-17T03:43:37.785Z,89.14
2022-12-17T03:44:08.062Z,88.72
2022-12-17T03:44:38.591Z,88.40
2022-12-17T03:45:09.138Z,88.19
2022-12-17T03:45:39.758Z,88.09
2022-12-17T03:46:10.414Z,88.29
2022-12-17T03:46:41.007Z,88.61
2022-12-17T03:47:11.566Z,89.04
2022-12-17T03:47:42.139Z,89.04
2022-12-17T03:48:12.706Z,88.82
2022-12-17T03:48:43.257Z,88.82
2022-12-17T03:49:13.845Z,88.61
2022-12-17T03:49:44.410Z,88.40
2022-12-17T03:50:14.965Z,88.29
2022-12-17T03:50:45.524Z,88.51
2022-12-17T03:51:16.080Z,88.72
2022-12-17T03:51:46.665Z,88.87
2022-12-17T03:52:17.244Z,88.87
2022-12-17T03:52:47.786Z,89.08
2022-12-17T03:53:18.519Z,89.08
2022-12-17T03:53:49.095Z,89.18
2022-12-17T03:54:19.660Z,89.18
2022-12-17T03:54:50.232Z,88.97
2022-12-17T03:55:20.811Z,88.87
2022-12-17T03:55:51.388Z,89.08
2022-12-17T03:56:21.942Z,89.40
2022-12-17T03:56:52.480Z,89.29
2022-12-17T03:57:23.072Z,89.08
2022-12-17T03:57:53.687Z,89.08
2022-12-17T03:58:24.252Z,89.29
2022-12-17T03:58:54.818Z,89.18
2022-12-17T03:59:25.409Z,89.40
2022-12-17T03:59:55.984Z,89.61
2022-12-17T04:00:26.517Z,90.03
2022-12-17T04:00:57.083Z,90.35
2022-12-17T04:01:27.786Z,90.25
2022-12-17T04:01:58.631Z,90.03
2022-12-17T04:02:29.544Z,89.82
2022-12-17T04:03:00.516Z,89.72
2022-12-17T04:03:31.251Z,89.93
2022-12-17T04:04:01.832Z,89.93
2022-12-17T04:04:32.396Z,89.82
2022-12-17T04:05:02.980Z,89.72
2022-12-17T04:05:33.564Z,89.72
2022-12-17T04:06:04.114Z,89.72
2022-12-17T04:06:34.683Z,89.82
2022-12-17T04:07:05.293Z,89.61
2022-12-17T04:07:35.868Z,89.54
2022-12-17T04:08:06.446Z,89.54
2022-12-17T04:08:36.994Z,89.22
2022-12-17T04:09:07.519Z,89.12
2022-12-17T04:09:38.085Z,89.12
2022-12-17T04:10:08.636Z,89.22
2022-12-17T04:10:39.206Z,89.22
2022-12-17T04:11:09.747Z,89.12
2022-12-17T04:11:40.311Z,89.22
2022-12-17T04:12:10.851Z,89.43
2022-12-17T04:12:41.587Z,89.33
2022-12-17T04:13:12.180Z,89.22
2022-12-17T04:13:43.076Z,89.43
2022-12-17T04:14:13.385Z,89.75
2022-12-17T04:14:43.935Z,90.18
2022-12-17T04:15:14.491Z,90.28
2022-12-17T04:15:45.113Z,90.50
2022-12-17T04:16:15.733Z,90.71
2022-12-17T04:16:46.312Z,90.60
2022-12-17T04:17:16.875Z,90.39
2022-12-17T04:17:47.481Z,90.28
2022-12-17T04:18:18.045Z,90.18
2022-12-17T04:18:48.590Z,90.08
2022-12-17T04:19:19.172Z,89.86
2022-12-17T04:19:49.747Z,90.08
2022-12-17T04:20:20.325Z,90.08
2022-12-17T04:20:50.903Z,89.97
2022-12-17T04:21:21.479Z,90.28
2022-12-17T04:21:52.051Z,90.92
2022-12-17T04:22:22.602Z,91.35
2022-12-17T04:22:53.170Z,91.24
2022-12-17T04:23:23.738Z,90.60
2022-12-17T04:23:54.326Z,90.60
2022-12-17T04:24:24.886Z,90.88
2022-12-17T04:24:55.441Z,91.09
2022-12-17T04:25:25.986Z,91.35
2022-12-17T04:25:56.553Z,91.52
2022-12-17T04:26:27.097Z,91.73
2022-12-17T04:26:57.678Z,91.73
2022-12-17T04:27:28.260Z,91.52
2022-12-17T04:27:58.821Z,91.30
2022-12-17T04:28:29.406Z,91.20
2022-12-17T04:28:59.953Z,91.09
2022-12-17T04:29:30.519Z,91.09
2022-12-17T04:30:01.100Z,91.20
2022-12-17T04:30:31.674Z,91.30
2022-12-17T04:31:02.294Z,91.52
2022-12-17T04:31:32.951Z,91.63
2022-12-17T04:32:03.613Z,91.52
2022-12-17T04:32:35.530Z,91.30
2022-12-17T04:33:04.727Z,91.20
2022-12-17T04:33:35.811Z,91.52
2022-12-17T04:34:06.115Z,92.05
2022-12-17T04:34:36.702Z,92.47
2022-12-17T04:35:07.265Z,92.79
2022-12-17T04:35:37.817Z,92.96
2022-12-17T04:36:08.384Z,92.64
2022-12-17T04:36:38.957Z,92.11
2022-12-17T04:37:09.527Z,92.00
2022-12-17T04:37:40.128Z,91.79
2022-12-17T04:38:10.697Z,91.69
2022-12-17T04:38:41.279Z,91.58
2022-12-17T04:39:11.832Z,91.58
2022-12-17T04:39:42.358Z,91.90
2022-12-17T04:40:12.953Z,92.11
2022-12-17T04:40:43.527Z,92.11
2022-12-17T04:41:14.119Z,92.22
2022-12-17T04:41:44.699Z,92.54
2022-12-17T04:42:15.271Z,92.96
2022-12-17T04:42:45.852Z,93.28
2022-12-17T04:43:16.457Z,93.49
2022-12-17T04:43:47.065Z,93.07
2022-12-17T04:44:17.636Z,92.75
2022-12-17T04:44:48.211Z,92.60
2022-12-17T04:45:18.801Z,92.71
2022-12-17T04:45:49.415Z,92.81
2022-12-17T04:46:20.178Z,93.13
2022-12-17T04:46:50.884Z,93.34
2022-12-17T04:47:21.435Z,93.13
2022-12-17T04:47:52.007Z,92.92
2022-12-17T04:48:22.622Z,92.92
2022-12-17T04:48:53.174Z,93.02
2022-12-17T04:49:23.748Z,93.44
2022-12-17T04:49:54.323Z,93.62
2022-12-17T04:50:24.895Z,93.30
2022-12-17T04:50:55.488Z,92.77
2022-12-17T04:51:26.070Z,92.45
2022-12-17T04:51:56.617Z,92.35
2022-12-17T04:52:27.188Z,92.35
2022-12-17T04:52:57.739Z,92.24
2022-12-17T04:53:28.323Z,92.24
2022-12-17T04:53:58.914Z,92.13
2022-12-17T04:54:29.501Z,92.03
2022-12-17T04:55:00.091Z,92.13
2022-12-17T04:55:30.629Z,92.35
2022-12-17T04:56:01.208Z,92.56
2022-12-17T04:56:31.792Z,92.56
2022-12-17T04:57:02.332Z,92.56
2022-12-17T04:57:32.915Z,92.56
2022-12-17T04:58:03.447Z,92.66
2022-12-17T04:58:34.025Z,92.77
2022-12-17T04:59:04.609Z,92.98
2022-12-17T04:59:35.150Z,92.94
2022-12-17T05:00:05.726Z,92.83
2022-12-17T05:00:36.332Z,92.73
2022-12-17T05:01:06.955Z,92.73
2022-12-17T05:01:37.694Z,92.62
2022-12-17T05:02:08.541Z,92.62
2022-12-17T05:02:42.672Z,92.41
2022-12-17T05:03:09.982Z,92.30
2022-12-17T05:03:41.074Z,92.10
2022-12-17T05:04:11.357Z,91.99
2022-12-17T05:04:41.933Z,91.78
2022-12-17T05:05:12.523Z,91.78
2022-12-17T05:05:43.077Z,91.88
2022-12-17T05:06:13.638Z,91.88
2022-12-17T05:06:44.234Z,91.88
2022-12-17T05:07:14.781Z,91.78
2022-12-17T05:07:45.317Z,91.56
2022-12-17T05:08:15.852Z,91.56
2022-12-17T05:08:46.421Z,91.56
2022-12-17T05:09:16.974Z,91.56
2022-12-17T05:09:47.548Z,91.46
2022-12-17T05:10:18.117Z,91.35
2022-12-17T05:10:48.686Z,91.35
2022-12-17T05:11:19.275Z,91.56
2022-12-17T05:11:49.824Z,91.67
2022-12-17T05:12:20.403Z,91.67
2022-12-17T05:12:50.979Z,91.46
2022-12-17T05:13:21.541Z,90.82
2022-12-17T05:13:52.114Z,90.50
2022-12-17T05:14:22.701Z,90.61
2022-12-17T05:14:53.266Z,90.50
2022-12-17T05:15:23.816Z,90.40
2022-12-17T05:15:54.414Z,90.50
2022-12-17T05:16:25.010Z,90.82
2022-12-17T05:16:55.564Z,91.03
2022-12-17T05:17:26.143Z,91.03
2022-12-17T05:17:56.692Z,91.14
2022-12-17T05:18:27.253Z,91.25
2022-12-17T05:18:57.843Z,91.25
2022-12-17T05:19:28.421Z,91.25
2022-12-17T05:19:59.023Z,91.03
2022-12-17T05:20:29.598Z,90.82
2022-12-17T05:21:00.168Z,90.82
2022-12-17T05:21:33.502Z,91.14
2022-12-17T05:22:01.642Z,91.35
2022-12-17T05:22:32.189Z,91.46
2022-12-17T05:23:02.765Z,91.14
2022-12-17T05:23:33.693Z,91.03
2022-12-17T05:24:03.917Z,90.61
2022-12-17T05:24:34.451Z,90.50
2022-12-17T05:25:04.984Z,90.44
2022-12-17T05:25:35.550Z,90.08
2022-12-17T05:26:06.138Z,90.12
2022-12-17T05:26:36.708Z,90.01
2022-12-17T05:27:07.259Z,89.81
2022-12-17T05:27:37.787Z,89.38
2022-12-17T05:28:08.339Z,89.38
2022-12-17T05:28:38.906Z,89.81
2022-12-17T05:29:15.402Z,89.70
2022-12-17T05:29:40.270Z,89.49
2022-12-17T05:30:10.803Z,89.59
2022-12-17T05:30:41.391Z,89.70
2022-12-17T05:31:12.011Z,89.70
2022-12-17T05:31:42.704Z,89.59
2022-12-17T05:32:13.300Z,89.49
2022-12-17T05:32:43.859Z,89.59
2022-12-17T05:33:14.437Z,89.70
2022-12-17T05:33:44.991Z,89.49
2022-12-17T05:34:15.575Z,89.70
2022-12-17T05:34:46.121Z,89.81
2022-12-17T05:35:16.703Z,90.01
2022-12-17T05:35:47.300Z,89.91
2022-12-17T05:36:17.882Z,89.81
2022-12-17T05:36:48.422Z,89.64
2022-12-17T05:37:19.007Z,89.74
2022-12-17T05:37:49.582Z,89.84
2022-12-17T05:38:20.156Z,90.06
2022-12-17T05:38:50.707Z,89.95
2022-12-17T05:39:21.233Z,89.95
2022-12-17T05:39:51.799Z,90.06
2022-12-17T05:40:22.336Z,90.06
2022-12-17T05:40:52.912Z,90.06
2022-12-17T05:41:23.498Z,90.23
2022-12-17T05:41:54.093Z,89.91
2022-12-17T05:42:24.703Z,89.53
2022-12-17T05:42:55.267Z,89.21
2022-12-17T05:43:25.829Z,89.11
2022-12-17T05:43:56.391Z,89.21
2022-12-17T05:44:26.951Z,89.31
2022-12-17T05:44:57.548Z,89.42
2022-12-17T05:45:28.106Z,89.53
2022-12-17T05:45:58.637Z,89.31
2022-12-17T05:46:29.335Z,88.89
2022-12-17T05:47:00.067Z,88.68
2022-12-17T05:47:30.648Z,88.79
2022-12-17T05:48:01.214Z,88.68
2022-12-17T05:48:31.792Z,88.57
2022-12-17T05:49:02.373Z,88.79
2022-12-17T05:49:32.969Z,89.21
2022-12-17T05:50:03.551Z,89.21
2022-12-17T05:50:34.120Z,89.25
2022-12-17T05:51:04.681Z,89.25
2022-12-17T05:51:38.590Z,89.36
2022-12-17T05:52:05.981Z,89.57
2022-12-17T05:52:36.575Z,89.99
2022-12-17T05:53:07.157Z,89.78
2022-12-17T05:53:38.226Z,89.36
2022-12-17T05:54:08.576Z,88.72
2022-12-17T05:54:39.160Z,88.51
2022-12-17T05:55:09.707Z,88.93
2022-12-17T05:55:40.259Z,88.93
2022-12-17T05:56:10.837Z,88.51
2022-12-17T05:56:41.428Z,88.19
2022-12-17T05:57:11.982Z,88.23
2022-12-17T05:57:42.546Z,88.23
2022-12-17T05:58:13.116Z,88.34
2022-12-17T05:58:43.674Z,88.02
2022-12-17T05:59:14.260Z,88.02
2022-12-17T05:59:44.819Z,88.55
2022-12-17T06:00:15.383Z,88.97
2022-12-17T06:00:45.923Z,89.29
2022-12-17T06:01:16.524Z,89.40
2022-12-17T06:01:47.147Z,89.29
2022-12-17T06:02:17.802Z,89.18
2022-12-17T06:02:48.616Z,89.18
2022-12-17T06:03:19.517Z,88.76
2022-12-17T06:03:50.426Z,88.44
2022-12-17T06:04:21.106Z,88.23
2022-12-17T06:04:51.664Z,88.48
2022-12-17T06:05:22.225Z,89.22
2022-12-17T06:05:52.794Z,90.08
2022-12-17T06:06:23.383Z,89.93
2022-12-17T06:06:53.923Z,89.65
2022-12-17T06:07:24.607Z,89.33
2022-12-17T06:07:55.187Z,89.12
2022-12-17T06:08:25.737Z,89.12
2022-12-17T06:08:56.311Z,89.12
2022-12-17T06:09:26.881Z,89.43
2022-12-17T06:09:57.456Z,89.65
2022-12-17T06:10:27.999Z,89.54
2022-12-17T06:10:58.543Z,89.43
2022-12-17T06:11:29.121Z,89.22
2022-12-17T06:12:02.791Z,89.12
2022-12-17T06:12:30.559Z,88.90
2022-12-17T06:13:01.136Z,88.37
2022-12-17T06:13:31.810Z,87.67
2022-12-17T06:14:02.423Z,87.95
2022-12-17T06:14:32.979Z,88.48
2022-12-17T06:15:03.519Z,89.16
2022-12-17T06:15:34.125Z,89.48
2022-12-17T06:16:04.755Z,89.69
2022-12-17T06:16:35.435Z,89.79
2022-12-17T06:17:06.060Z,89.37
2022-12-17T06:17:36.612Z,89.16
2022-12-17T06:18:08.504Z,89.16
2022-12-17T06:18:37.961Z,89.16
2022-12-17T06:19:08.532Z,88.95
2022-12-17T06:19:39.107Z,88.63
2022-12-17T06:20:09.671Z,88.42
2022-12-17T06:20:40.201Z,88.52
2022-12-17T06:21:10.792Z,88.52
2022-12-17T06:21:41.403Z,88.63
2022-12-17T06:22:11.954Z,88.56
2022-12-17T06:22:42.490Z,88.73
2022-12-17T06:23:13.059Z,88.98
2022-12-17T06:23:43.668Z,89.09
2022-12-17T06:24:14.231Z,89.31
2022-12-17T06:24:46.292Z,89.41
2022-12-17T06:25:15.393Z,89.51
2022-12-17T06:25:45.976Z,89.62
2022-12-17T06:26:16.547Z,89.51
2022-12-17T06:26:47.091Z,89.41
2022-12-17T06:27:17.643Z,89.41
2022-12-17T06:27:48.215Z,89.41
2022-12-17T06:28:18.773Z,89.20
2022-12-17T06:28:49.340Z,88.88
2022-12-17T06:29:19.905Z,88.78
2022-12-17T06:29:50.484Z,88.56
2022-12-17T06:30:21.051Z,88.67
2022-12-17T06:30:51.563Z,88.78
2022-12-17T06:31:22.156Z,89.09
2022-12-17T06:31:52.837Z,89.09
2022-12-17T06:32:23.427Z,88.98
2022-12-17T06:32:53.993Z,88.78
2022-12-17T06:33:24.538Z,88.98
2022-12-17T06:33:55.023Z,89.20